Time;durP1;ratioP1;P1;durP2;ratioP2;P2;SDS_P1;SDS_P2;PMS_P1;PMS_P2;Temp;Humidity;BMP_temperature;BMP_pressure;BME280_temperature;BME280_humidity;BME280_pressure;Samples;Min_cycle;Max_cycle;Signal;HPM_P1;HPM_P2
2023/04/02 00:01:01;;;;;;;2.53;1.27;;;;;;;7.31;98.17;101371.66;5009554;28;96893;-29
2023/04/02 00:03:58;;;;;;;1.98;1.40;;;;;;;7.29;97.91;101368.16;5037635;27;97915;-30
2023/04/02 00:06:31;;;;;;;1.52;1.27;;;;;;;7.28;97.77;101380.75;5001319;28;101413;-29
2023/04/02 00:09:00;;;;;;;2.58;1.73;;;;;;;7.22;97.90;101379.19;5037765;27;96515;-28
2023/04/02 00:11:37;;;;;;;3.10;1.60;;;;;;;7.27;98.23;101388.88;5036608;28;96858;-29
2023/04/02 00:14:15;;;;;;;3.47;1.65;;;;;;;7.23;97.65;101386.31;5035752;28;100965;-29
2023/04/02 00:16:41;;;;;;;5.00;1.67;;;;;;;7.25;97.66;101394.34;5035769;28;101343;-29
2023/04/02 00:19:14;;;;;;;1.67;1.40;;;;;;;7.20;97.93;101399.06;5035693;28;96653;-29
2023/04/02 00:21:42;;;;;;;2.90;2.10;;;;;;;7.16;98.09;101394.72;5036154;28;96716;-29
2023/04/02 00:24:15;;;;;;;1.33;1.02;;;;;;;7.18;98.06;101399.09;5035857;28;100133;-29
2023/04/02 00:26:49;;;;;;;3.15;1.38;;;;;;;7.23;98.17;101410.56;5037256;27;98258;-29
2023/04/02 00:29:16;;;;;;;2.08;0.98;;;;;;;7.29;98.22;101408.56;5037338;28;96661;-32
2023/04/02 00:31:46;;;;;;;1.95;1.52;;;;;;;7.25;97.89;101413.22;5036066;28;96842;-28
2023/04/02 00:34:18;;;;;;;5.32;1.92;;;;;;;7.26;97.86;101414.97;5036905;28;97928;-30
2023/04/02 00:36:45;;;;;;;2.10;1.38;;;;;;;7.26;97.83;101414.97;5037150;28;99238;-30
2023/04/02 00:39:19;;;;;;;2.28;1.52;;;;;;;7.27;97.69;101423.91;5035845;28;96627;-30
2023/04/02 00:41:48;;;;;;;4.43;1.40;;;;;;;7.25;97.79;101425.81;5037193;27;96634;-29
2023/04/02 00:44:20;;;;;;;3.25;1.95;;;;;;;7.21;97.76;101434.00;5034981;28;100625;-29
2023/04/02 00:46:48;;;;;;;2.92;1.48;;;;;;;7.10;97.53;101438.91;5035377;27;100838;-29
2023/04/02 00:49:33;;;;;;;2.50;1.80;;;;;;;7.06;97.30;101439.97;5035618;27;97552;-30
2023/04/02 00:52:05;;;;;;;1.88;1.25;;;;;;;7.03;97.62;101445.44;5037125;27;96475;-29
2023/04/02 00:54:40;;;;;;;1.75;1.30;;;;;;;7.03;97.51;101450.84;5035165;28;99347;-29
2023/04/02 00:57:15;;;;;;;2.90;1.83;;;;;;;7.06;97.32;101456.13;5035071;27;101290;-29
2023/04/02 00:59:55;;;;;;;1.27;1.00;;;;;;;7.07;97.42;101457.88;5035571;28;96567;-29
2023/04/02 01:02:31;;;;;;;1.40;0.77;;;;;;;7.00;96.58;101465.31;5037080;28;96844;-30
2023/04/02 01:05:01;;;;;;;2.17;1.30;;;;;;;7.02;97.05;101476.03;5035322;28;101315;-29
2023/04/02 01:07:41;;;;;;;2.20;1.60;;;;;;;7.02;97.12;101473.34;5035159;28;100935;-31
2023/04/02 01:10:25;;;;;;;1.83;1.40;;;;;;;6.97;97.12;101478.03;5036295;27;96565;-29
2023/04/02 01:13:07;;;;;;;4.15;1.90;;;;;;;6.89;96.81;101482.78;5036872;28;96785;-30
2023/04/02 01:15:42;;;;;;;1.52;1.02;;;;;;;6.84;96.75;101482.97;5036615;28;98025;-29
2023/04/02 01:18:45;;;;;;;3.70;2.15;;;;;;;6.83;96.58;101491.97;5034913;28;100949;-29
2023/04/02 01:21:10;;;;;;;1.30;1.15;;;;;;;6.81;96.54;101499.22;5036531;28;96715;-31
2023/04/02 01:24:13;;;;;;;2.50;1.45;;;;;;;6.77;96.55;101501.16;5036678;27;96755;-29
2023/04/02 01:26:56;;;;;;;2.17;1.38;;;;;;;6.81;96.50;101512.69;5036294;28;97471;-29
2023/04/02 01:29:24;;;;;;;3.08;1.23;;;;;;;6.79;96.46;101510.06;5035783;27;99620;-31
2023/04/02 01:31:53;;;;;;;2.40;1.70;;;;;;;6.72;96.87;101500.44;5036744;28;96576;-29
2023/04/02 01:34:22;;;;;;;2.03;1.33;;;;;;;6.72;96.15;101503.13;5035125;28;97003;-29
2023/04/02 01:37:03;;;;;;;2.40;1.73;;;;;;;6.75;96.33;101512.91;5034039;28;100945;-29
2023/04/02 01:39:48;;;;;;;1.90;1.43;;;;;;;6.79;96.22;101522.63;5034777;28;101093;-29
2023/04/02 01:42:37;;;;;;;2.65;1.88;;;;;;;6.74;96.38;101525.47;5004352;27;96809;-31
2023/04/02 01:45:13;;;;;;;2.72;1.77;;;;;;;6.74;95.86;101535.38;5035038;28;96496;-29
2023/04/02 01:47:39;;;;;;;3.55;2.17;;;;;;;6.70;96.24;101529.22;5034509;28;101566;-30
2023/04/02 01:50:30;;;;;;;2.00;1.52;;;;;;;6.69;95.99;101535.53;5035742;27;98749;-30
2023/04/02 01:52:59;;;;;;;1.40;1.27;;;;;;;6.66;96.08;101542.84;5036260;28;96564;-30
2023/04/02 01:55:30;;;;;;;2.17;1.40;;;;;;;6.62;95.89;101554.63;5035146;28;96925;-29
2023/04/02 01:57:58;;;;;;;1.75;1.25;;;;;;;6.59;95.53;101555.63;5035978;27;98064;-29
2023/04/02 02:00:24;;;;;;;1.17;0.88;;;;;;;6.56;95.45;101555.75;5034360;28;101166;-29
2023/04/02 02:02:50;;;;;;;2.20;1.73;;;;;;;6.55;96.05;101560.25;5035187;27;96762;-29
2023/04/02 02:05:19;;;;;;;2.30;0.90;;;;;;;6.53;95.99;101563.91;5034545;28;96824;-29
2023/04/02 02:07:45;;;;;;;1.98;1.60;;;;;;;6.53;95.88;101561.19;5034271;28;100930;-30
2023/04/02 02:10:16;;;;;;;1.48;1.08;;;;;;;6.53;95.95;101566.59;5033400;28;100793;-29
2023/04/02 02:12:44;;;;;;;2.47;1.87;;;;;;;6.51;95.76;101565.78;5034259;28;96742;-29
2023/04/02 02:15:16;;;;;;;4.47;1.98;;;;;;;6.44;95.75;101575.88;5035835;27;96532;-29
2023/04/02 02:17:42;;;;;;;1.53;1.10;;;;;;;6.45;95.78;101577.59;5034147;28;101152;-29
2023/04/02 02:20:09;;;;;;;2.97;1.58;;;;;;;6.41;95.77;101575.94;5034359;28;100845;-29
2023/04/02 02:22:37;;;;;;;2.78;1.67;;;;;;;6.35;95.52;101585.09;5034394;28;96648;-29
2023/04/02 02:25:09;;;;;;;2.00;1.25;;;;;;;6.37;95.74;101587.75;5034228;27;96788;-29
2023/04/02 02:27:36;;;;;;;;;;;;;;;6.36;95.22;101603.03;5034560;27;99852;-29
2023/04/02 02:30:14;;;;;;;1.83;1.20;;;;;;;6.32;95.71;101601.34;5033633;28;100678;-29
2023/04/02 02:32:47;;;;;;;5.78;1.23;;;;;;;6.31;95.43;101599.56;5034104;28;96700;-29
2023/04/02 02:35:21;;;;;;;5.28;1.88;;;;;;;6.31;95.46;101615.72;5035642;28;96514;-29
2023/04/02 02:37:55;;;;;;;1.40;1.13;;;;;;;6.30;95.44;101611.28;5035082;27;97924;-29
2023/04/02 02:40:26;;;;;;;1.98;1.33;;;;;;;6.34;95.59;101612.03;5033603;28;100908;-29
2023/04/02 02:42:57;;;;;;;1.90;1.47;;;;;;;6.32;95.65;101614.81;5034201;27;96714;-29
2023/04/02 02:45:28;;;;;;;2.08;1.27;;;;;;;6.35;95.48;101620.09;5034438;27;96672;-29
2023/04/02 02:47:55;;;;;;;2.22;1.30;;;;;;;6.29;95.25;101622.06;5033654;27;101237;-28
2023/04/02 02:50:30;;;;;;;2.13;1.45;;;;;;;6.24;95.15;101624.91;5033564;28;101021;-29
2023/04/02 02:52:58;;;;;;;1.80;1.23;;;;;;;6.27;95.29;101624.84;5033203;28;96632;-29
2023/04/02 02:55:31;;;;;;;0.93;0.75;;;;;;;6.23;94.63;101635.75;5033874;28;96906;-29
2023/04/02 02:58:14;;;;;;;2.05;1.48;;;;;;;6.15;94.87;101647.63;5034725;27;99707;-29
2023/04/02 03:00:41;;;;;;;4.85;1.92;;;;;;;6.14;95.29;101647.66;5033390;28;98287;-29
2023/04/02 03:03:11;;;;;;;1.88;1.42;;;;;;;6.14;95.05;101650.34;5035206;27;96485;-29
2023/04/02 03:05:39;;;;;;;2.45;1.33;;;;;;;6.12;94.89;101655.75;5033591;27;96809;-29
2023/04/02 03:08:09;;;;;;;1.83;1.27;;;;;;;6.14;94.97;101658.41;5033269;28;100929;-29
2023/04/02 03:11:00;;;;;;;1.83;1.27;;;;;;;6.13;95.30;101675.47;5033657;28;100945;-29
2023/04/02 03:13:31;;;;;;;3.53;1.25;;;;;;;6.09;94.82;101672.00;5035020;28;96616;-29
2023/04/02 03:16:19;;;;;;;2.95;1.95;;;;;;;6.13;95.29;101694.31;5033459;28;96812;-29
2023/04/02 03:18:53;;;;;;;2.20;1.17;;;;;;;6.07;94.77;101691.78;5033864;28;99340;-29
2023/04/02 03:21:21;;;;;;;3.25;1.83;;;;;;;6.06;95.13;101692.72;5034719;27;97498;-29
2023/04/02 03:23:55;;;;;;;2.03;1.33;;;;;;;6.05;94.82;101697.19;5035250;28;96579;-29
2023/04/02 03:26:28;;;;;;;2.20;1.63;;;;;;;5.97;94.80;101707.31;5034480;27;96700;-29
2023/04/02 03:29:00;;;;;;;3.40;1.73;;;;;;;6.00;94.96;101706.34;5032528;28;101529;-29
2023/04/02 03:31:36;;;;;;;2.53;1.17;;;;;;;5.93;94.54;101714.56;5034644;27;97842;-29
2023/04/02 03:34:13;;;;;;;1.35;1.25;;;;;;;5.98;95.14;101727.00;5033381;28;96590;-29
2023/04/02 03:36:56;;;;;;;7.85;1.25;;;;;;;5.97;95.00;101718.06;5033394;28;96938;-29
2023/04/02 03:39:34;;;;;;;2.17;1.50;;;;;;;5.95;94.91;101723.47;5034301;27;99409;-29
2023/04/02 03:42:24;;;;;;;2.28;1.05;;;;;;;5.93;94.69;101738.78;5032772;28;101461;-29
2023/04/02 03:44:53;;;;;;;1.60;1.23;;;;;;;5.92;94.53;101736.97;5033776;27;96655;-29
2023/04/02 03:47:36;;;;;;;1.75;1.35;;;;;;;5.85;94.24;101751.53;5033251;28;96899;-29
2023/04/02 03:50:06;;;;;;;1.60;1.17;;;;;;;5.83;94.38;101761.44;5032790;28;100865;-29
2023/04/02 03:52:35;;;;;;;1.88;1.08;;;;;;;5.74;93.86;101777.81;5032741;27;100571;-28
2023/04/02 03:55:09;;;;;;;3.90;1.60;;;;;;;5.73;94.03;101779.63;5032929;28;96675;-29
2023/04/02 03:57:41;;;;;;;1.38;0.98;;;;;;;5.73;94.14;101776.06;5034302;27;96724;-29
2023/04/02 04:00:35;;;;;;;2.28;1.33;;;;;;;5.77;94.19;101790.28;5032659;28;101191;-29
2023/04/02 04:03:25;;;;;;;2.22;1.38;;;;;;;5.80;94.22;101787.53;5027975;28;97842;-29
2023/04/02 04:06:14;;;;;;;3.75;1.52;;;;;;;5.82;94.14;101797.31;5033099;28;96534;-28
2023/04/02 04:08:49;;;;;;;1.48;0.73;;;;;;;5.84;94.41;101794.56;5032897;28;96734;-29
2023/04/02 04:11:23;;;;;;;3.35;1.45;;;;;;;5.88;94.57;101805.19;5032111;28;101265;-28
2023/04/02 04:13:57;;;;;;;1.63;1.20;;;;;;;5.90;94.76;101813.25;5034204;28;97355;-29
2023/04/02 04:16:33;;;;;;;4.82;1.63;;;;;;;5.93;94.63;101813.16;5032804;28;96560;-29
2023/04/02 04:19:21;;;;;;;1.95;1.55;;;;;;;5.89;94.09;101819.56;5032701;28;96760;-30
2023/04/02 04:21:46;;;;;;;1.90;1.10;;;;;;;5.77;94.23;101819.84;5032488;28;101372;-29
2023/04/02 04:24:21;;;;;;;2.83;1.73;;;;;;;5.74;94.12;101827.09;5033843;27;98334;-28
2023/04/02 04:26:54;;;;;;;1.30;0.90;;;;;;;5.75;94.04;101831.53;5034190;27;97926;-28
2023/04/02 04:29:44;;;;;;;0.93;0.85;;;;;;;5.71;93.73;101839.72;5032422;27;96878;-30
2023/04/02 04:32:33;;;;;;;1.45;1.30;;;;;;;5.66;94.19;101855.09;5033561;27;99556;-29
2023/04/02 04:35:18;;;;;;;2.20;0.85;;;;;;;5.67;94.12;101851.47;5035633;27;101157;-29
2023/04/02 04:37:48;;;;;;;1.92;1.23;;;;;;;5.65;93.91;101847.91;5035462;28;96888;-31
2023/04/02 04:40:30;;;;;;;2.28;1.27;;;;;;;5.64;93.88;101857.78;5035947;28;96848;-29
2023/04/02 04:42:59;;;;;;;;;;;;;;;5.64;94.03;101862.28;5036103;28;100681;-28
2023/04/02 04:45:46;;;;;;;0.73;0.73;;;;;;;5.59;94.07;101858.84;5036868;27;97283;-28
2023/04/02 04:48:20;;;;;;;1.85;1.38;;;;;;;5.56;94.41;101865.19;5035962;28;96700;-29
2023/04/02 04:50:52;;;;;;;1.55;1.10;;;;;;;5.52;94.25;101869.72;5035675;27;96815;-30
2023/04/02 04:53:23;;;;;;;3.30;1.65;;;;;;;5.52;94.32;101874.22;5035335;28;101264;-29
2023/04/02 04:55:52;;;;;;;2.00;1.63;;;;;;;5.50;94.56;101882.31;5035553;28;99213;-29
2023/04/02 04:58:30;;;;;;;2.47;1.20;;;;;;;5.48;93.93;101892.25;5035500;28;97754;-28
2023/04/02 05:01:06;;;;;;;2.03;1.65;;;;;;;5.49;94.02;101902.06;5035585;28;96716;-31
2023/04/02 05:03:41;;;;;;;0.57;0.55;;;;;;;5.47;93.89;101908.38;5034666;28;100886;-29
2023/04/02 05:06:53;;;;;;;1.60;1.10;;;;;;;5.46;94.05;101918.25;5035073;27;100808;-29
2023/04/02 05:09:42;;;;;;;2.90;0.83;;;;;;;5.41;93.90;101914.81;5003438;28;96829;-29
2023/04/02 05:12:33;;;;;;;1.20;0.77;;;;;;;5.39;93.71;101931.88;5037169;27;96773;-28
2023/04/02 05:15:02;;;;;;;0.60;0.60;;;;;;;5.31;93.68;101916.81;5036445;27;99648;-29
2023/04/02 05:17:34;;;;;;;2.13;1.27;;;;;;;5.26;93.63;101929.44;5036313;27;99417;-29
2023/04/02 05:20:15;;;;;;;2.15;1.85;;;;;;;5.24;93.23;101935.75;5035407;28;96711;-29
2023/04/02 05:23:10;;;;;;;1.25;1.15;;;;;;;5.25;93.73;101945.59;5035572;28;96603;-29
2023/04/02 05:25:37;;;;;;;0.75;0.70;;;;;;;5.29;93.87;101950.88;5030842;28;97964;-28
2023/04/02 05:28:11;;;;;;;3.55;1.30;;;;;;;5.27;93.09;101946.47;5034112;28;101037;-29
2023/04/02 05:31:04;;;;;;;1.92;1.27;;;;;;;5.26;93.06;101956.31;5035072;28;97056;-29
2023/04/02 05:33:35;;;;;;;1.23;1.08;;;;;;;5.24;92.86;101968.00;5027974;28;96699;-29
2023/04/02 05:36:08;;;;;;;1.48;1.15;;;;;;;5.22;93.05;101969.81;5036288;28;97912;-28
2023/04/02 05:38:37;;;;;;;1.65;1.33;;;;;;;5.25;93.56;101977.84;5034615;28;101224;-29
2023/04/02 05:41:31;;;;;;;2.60;1.80;;;;;;;5.19;92.59;101978.84;5034936;28;96587;-29
2023/04/02 05:44:27;;;;;;;3.78;0.88;;;;;;;5.11;92.28;101987.06;5035586;27;96518;-28
2023/04/02 05:46:56;;;;;;;2.22;1.50;;;;;;;5.07;93.23;101976.41;5034487;28;100221;-29
2023/04/02 05:49:30;;;;;;;1.50;1.00;;;;;;;5.09;92.99;101996.94;5034894;28;100518;-28
2023/04/02 05:51:59;;;;;;;1.38;0.98;;;;;;;5.05;92.21;101999.72;5036074;27;96669;-29
2023/04/02 05:54:31;;;;;;;0.82;0.77;;;;;;;5.06;92.42;101997.00;5036123;27;96679;-29
2023/04/02 05:57:03;;;;;;;4.43;1.55;;;;;;;5.04;92.65;101996.16;5033899;28;101242;-28
2023/04/02 05:59:36;;;;;;;2.45;1.15;;;;;;;5.08;92.46;101994.31;5034510;28;101306;-28
2023/04/02 06:02:16;;;;;;;2.50;0.80;;;;;;;5.07;92.21;102005.94;5034699;28;96644;-30
2023/04/02 06:05:04;;;;;;;2.10;0.80;;;;;;;5.06;92.19;102020.31;5034717;27;96738;-29
2023/04/02 06:07:52;;;;;;;1.67;1.40;;;;;;;5.03;92.59;102025.72;5034284;28;101211;-30
2023/04/02 06:10:54;;;;;;;0.52;0.40;;;;;;;5.02;91.59;102043.63;5034292;28;101582;-29
2023/04/02 06:13:20;;;;;;;0.82;0.80;;;;;;;5.00;92.31;102047.25;5029143;28;96713;-29
2023/04/02 06:15:46;;;;;;;1.73;1.15;;;;;;;5.01;92.09;102055.28;5034856;28;96818;-29
2023/04/02 06:18:15;;;;;;;2.00;1.40;;;;;;;4.97;91.83;102063.44;5035654;28;98745;-29
2023/04/02 06:20:41;;;;;;;1.00;0.90;;;;;;;4.88;91.82;102069.84;5035200;27;98070;-29
2023/04/02 06:23:16;;;;;;;1.98;0.63;;;;;;;4.88;91.89;102067.16;5035008;27;96633;-30
2023/04/02 06:25:48;;;;;;;1.00;0.57;;;;;;;4.82;91.38;102089.66;5036006;27;96511;-30
2023/04/02 06:28:23;;;;;;;1.75;1.33;;;;;;;4.74;91.42;102088.00;5034702;27;97446;-29
2023/04/02 06:30:53;;;;;;;2.10;1.42;;;;;;;4.68;91.26;102110.47;5033741;28;100887;-29
2023/04/02 06:33:19;;;;;;;1.15;0.80;;;;;;;4.63;90.61;102105.19;5033998;28;96653;-29
2023/04/02 06:35:46;;;;;;;4.03;1.65;;;;;;;4.62;90.95;102107.88;5035423;27;96860;-29
2023/04/02 06:38:20;;;;;;;2.25;1.08;;;;;;;4.59;90.19;102122.22;5033535;28;101571;-29
2023/04/02 06:40:51;;;;;;;1.00;0.75;;;;;;;4.57;90.41;102117.81;5035393;27;99276;-29
2023/04/02 06:43:25;;;;;;;0.55;0.47;;;;;;;4.58;90.19;102112.41;5034028;28;96736;-29
2023/04/02 06:45:54;;;;;;;3.85;0.85;;;;;;;4.59;89.92;102122.22;5034084;28;96697;-28
2023/04/02 06:48:20;;;;;;;0.93;0.70;;;;;;;4.57;88.96;102126.72;5032969;27;101099;-30
2023/04/02 06:51:04;;;;;;;0.63;0.63;;;;;;;4.61;88.99;102131.16;5033595;28;100615;-28
2023/04/02 06:53:35;;;;;;;2.78;0.85;;;;;;;4.64;88.44;102139.13;5035026;27;96582;-28
2023/04/02 06:56:27;;;;;;;1.52;1.27;;;;;;;4.57;89.41;102133.91;5033592;28;96772;-29
2023/04/02 06:58:52;;;;;;;1.17;0.75;;;;;;;4.54;88.72;102152.75;5023092;28;99379;-29
2023/04/02 07:01:23;;;;;;;2.75;1.42;;;;;;;4.46;88.36;102158.22;5034678;28;99268;-28
2023/04/02 07:03:48;;;;;;;1.08;0.98;;;;;;;4.39;88.32;102161.91;5033666;28;96500;-29
2023/04/02 07:06:19;;;;;;;4.88;1.30;;;;;;;4.42;88.23;102170.78;5034055;28;96753;-29
2023/04/02 07:08:45;;;;;;;2.35;0.88;;;;;;;4.33;88.24;102170.03;5033389;28;101604;-29
2023/04/02 07:11:19;;;;;;;2.70;1.20;;;;;;;4.26;88.21;102180.84;5034508;27;97822;-29
2023/04/02 07:13:45;;;;;;;1.33;0.85;;;;;;;4.23;87.77;102180.88;5033041;28;96687;-28
2023/04/02 07:16:17;;;;;;;1.35;1.10;;;;;;;4.25;87.29;102189.81;5033710;28;96784;-31
2023/04/02 07:18:43;;;;;;;1.42;0.70;;;;;;;4.28;87.68;102194.25;5033339;28;100900;-28
2023/04/02 07:21:09;;;;;;;0.77;0.52;;;;;;;4.23;86.51;102199.66;5034638;27;97938;-29
2023/04/02 07:23:35;;;;;;;0.98;0.73;;;;;;;4.26;87.74;102210.34;5033370;28;96645;-29
2023/04/02 07:26:01;;;;;;;1.55;0.85;;;;;;;4.24;87.20;102208.59;5033456;28;96920;-29
2023/04/02 07:28:27;;;;;;;1.10;0.73;;;;;;;4.26;87.11;102210.34;5033884;28;97937;-29
2023/04/02 07:30:53;;;;;;;1.15;0.82;;;;;;;4.23;86.89;102222.91;5033516;28;100677;-32
2023/04/02 07:33:23;;;;;;;1.50;0.85;;;;;;;4.22;87.35;102224.72;5033388;28;96596;-28
2023/04/02 07:35:50;;;;;;;2.10;1.10;;;;;;;4.29;87.72;102229.97;5033129;28;96873;-29
2023/04/02 07:38:15;;;;;;;1.55;1.15;;;;;;;4.27;87.43;102235.38;5032041;28;100921;-29
2023/04/02 07:40:41;;;;;;;1.65;1.02;;;;;;;4.30;87.24;102239.81;5034397;28;97949;-29
2023/04/02 07:43:06;;;;;;;3.22;1.13;;;;;;;4.36;86.33;102237.03;5034492;27;96599;-29
2023/04/02 07:45:32;;;;;;;0.73;0.60;;;;;;;4.41;86.45;102241.47;5034822;27;96795;-28
2023/04/02 07:48:04;;;;;;;1.13;0.85;;;;;;;4.48;86.78;102242.25;5034640;27;97328;-29
2023/04/02 07:50:29;;;;;;;1.65;0.63;;;;;;;4.49;86.35;102246.72;5032837;28;100907;-31
2023/04/02 07:52:55;;;;;;;2.17;0.80;;;;;;;4.52;86.66;102243.97;5034510;27;96592;-30
2023/04/02 07:55:20;;;;;;;1.88;1.05;;;;;;;4.55;86.78;102248.41;5034804;27;96804;-29
2023/04/02 07:57:51;;;;;;;0.63;0.52;;;;;;;4.55;86.07;102264.50;5034289;27;97853;-30
2023/04/02 08:00:17;;;;;;;1.75;0.73;;;;;;;4.56;86.92;102267.19;5032691;28;101656;-29
2023/04/02 08:02:43;;;;;;;0.98;0.70;;;;;;;4.53;84.85;102271.69;5032401;28;96527;-29
2023/04/02 08:05:09;;;;;;;0.77;0.77;;;;;;;4.52;86.09;102281.53;5034534;27;96845;-29
2023/04/02 08:07:35;;;;;;;0.52;0.52;;;;;;;4.49;85.88;102283.41;5033083;28;100509;-31
2023/04/02 08:10:02;;;;;;;4.05;1.17;;;;;;;4.53;86.44;102298.53;5037738;27;98143;-29
2023/04/02 08:12:27;;;;;;;0.93;0.60;;;;;;;4.49;86.40;102308.41;5036331;28;96500;-28
2023/04/02 08:14:52;;;;;;;1.13;1.00;;;;;;;4.37;86.05;102303.22;5037645;27;96805;-29
2023/04/02 08:17:18;;;;;;;1.13;0.90;;;;;;;4.34;86.48;102309.50;5037735;27;97718;-30
2023/04/02 08:19:43;;;;;;;1.25;0.95;;;;;;;4.37;86.39;102313.94;5037769;27;96946;-29
2023/04/02 08:22:09;;;;;;;0.95;0.63;;;;;;;4.42;86.23;102318.34;5037823;27;96411;-29
2023/04/02 08:24:34;;;;;;;0.65;0.65;;;;;;;4.38;86.42;102319.28;5037735;27;96773;-29
2023/04/02 08:27:01;;;;;;;0.68;0.68;;;;;;;4.34;86.57;102325.59;5036370;27;99682;-29
2023/04/02 08:29:30;;;;;;;1.73;0.85;;;;;;;4.38;86.37;102324.63;5036586;27;99535;-29
2023/04/02 08:31:58;;;;;;;0.95;0.75;;;;;;;4.39;86.72;102330.91;5036154;28;96687;-29
2023/04/02 08:34:25;;;;;;;0.30;0.30;;;;;;;4.40;86.33;102330.88;5036180;28;96792;-29
2023/04/02 08:36:55;;;;;;;1.30;0.98;;;;;;;4.44;86.23;102346.03;5035368;28;101378;-29
2023/04/02 08:39:21;;;;;;;1.73;0.68;;;;;;;4.43;86.21;102346.03;5036917;28;97139;-29
2023/04/02 08:41:57;;;;;;;0.65;0.47;;;;;;;4.45;86.21;102360.34;5037459;28;96675;-29
2023/04/02 08:44:41;;;;;;;0.98;0.50;;;;;;;4.44;85.28;102350.53;5036415;28;96701;-29
2023/04/02 08:47:09;;;;;;;0.85;0.57;;;;;;;4.38;85.64;102362.19;5035353;28;101368;-29
2023/04/02 08:49:38;;;;;;;0.57;0.38;;;;;;;4.36;85.54;102365.81;5036702;27;99457;-30
2023/04/02 08:52:04;;;;;;;0.85;0.65;;;;;;;4.28;85.28;102362.34;5036713;27;97048;-29
2023/04/02 08:54:42;;;;;;;0.47;0.43;;;;;;;4.23;85.89;102365.94;5037224;27;96753;-29
2023/04/02 08:57:23;;;;;;;1.45;0.63;;;;;;;4.25;85.79;102377.53;5036671;27;99393;-29
2023/04/02 08:59:57;;;;;;;0.93;0.57;;;;;;;4.23;85.08;102391.88;5035454;28;101210;-29
2023/04/02 09:02:33;;;;;;;6.85;0.88;;;;;;;4.25;85.24;102392.75;5035692;28;96554;-29
2023/04/02 09:05:03;;;;;;;1.25;1.02;;;;;;;4.27;85.28;102399.00;5035672;27;96709;-30
2023/04/02 09:07:31;;;;;;;1.30;0.52;;;;;;;4.19;85.67;102399.06;5035207;27;102468;-29
2023/04/02 09:09:57;;;;;;;0.73;0.65;;;;;;;4.24;85.33;102397.25;5035388;28;101224;-29
2023/04/02 09:12:26;;;;;;;0.75;0.60;;;;;;;4.22;84.90;102401.72;5036757;27;96802;-30
2023/04/02 09:14:55;;;;;;;1.20;0.90;;;;;;;4.31;85.48;102413.25;5035264;28;96956;-29
2023/04/02 09:17:25;;;;;;;3.55;0.80;;;;;;;4.24;85.27;102409.72;5035821;27;99125;-29
2023/04/02 09:20:17;;;;;;;2.40;1.23;;;;;;;4.14;84.88;102422.34;5036120;27;99148;-29
2023/04/02 09:22:49;;;;;;;0.40;0.30;;;;;;;4.14;85.33;102425.03;5036629;27;96477;-29
2023/04/02 09:25:25;;;;;;;0.52;0.47;;;;;;;4.16;85.34;102430.38;5035310;28;96910;-29
2023/04/02 09:27:54;;;;;;;0.80;0.77;;;;;;;4.19;85.11;102423.19;5034284;28;100848;-29
2023/04/02 09:30:38;;;;;;;0.98;0.75;;;;;;;4.25;84.68;102436.56;5034885;27;99438;-31
2023/04/02 09:33:07;;;;;;;3.30;0.77;;;;;;;4.36;84.90;102438.22;5035114;28;96572;-29
2023/04/02 09:35:53;;;;;;;1.45;0.65;;;;;;;4.37;84.16;102435.53;5035458;28;96851;-29
2023/04/02 09:38:30;;;;;;;1.30;0.80;;;;;;;4.38;84.70;102448.03;5034391;28;101420;-28
2023/04/02 09:41:04;;;;;;;1.50;0.68;;;;;;;4.36;83.70;102443.59;5036086;28;98241;-29
2023/04/02 09:43:37;;;;;;;1.02;0.80;;;;;;;4.37;84.16;102448.06;5034606;28;96791;-31
2023/04/02 09:46:03;;;;;;;0.90;0.82;;;;;;;4.37;83.94;102453.44;5035263;27;96883;-29
2023/04/02 09:48:33;;;;;;;1.27;0.85;;;;;;;4.40;83.51;102458.75;5036130;27;98393;-30
2023/04/02 09:51:04;;;;;;;2.58;0.80;;;;;;;4.44;83.71;102461.41;5034595;28;101082;-29
2023/04/02 09:53:34;;;;;;;1.42;0.68;;;;;;;4.49;83.55;102460.47;5036117;27;96688;-29
2023/04/02 09:56:08;;;;;;;1.52;0.68;;;;;;;4.47;83.84;102471.22;5034608;28;96883;-29
2023/04/02 09:58:33;;;;;;;0.85;0.68;;;;;;;4.47;83.94;102473.91;5035821;27;97902;-29
2023/04/02 10:00:59;;;;;;;1.10;0.70;;;;;;;4.57;83.47;102480.06;5035914;27;99590;-29
2023/04/02 10:03:27;;;;;;;0.40;0.40;;;;;;;4.58;83.13;102484.53;5036033;27;96647;-29
2023/04/02 10:06:21;;;;;;;0.65;0.45;;;;;;;4.66;82.82;102483.53;5035948;27;96658;-29
2023/04/02 10:08:47;;;;;;;1.77;1.02;;;;;;;4.61;82.80;102479.13;5021077;27;99780;-28
2023/04/02 10:11:15;;;;;;;3.60;0.90;;;;;;;4.65;82.31;102484.44;5035524;28;99195;-29
2023/04/02 10:13:41;;;;;;;4.25;1.00;;;;;;;5.17;81.69;102493.66;5034469;28;96608;-29
2023/04/02 10:16:32;;;;;;;2.72;0.82;;;;;;;5.73;79.72;102500.09;5035888;27;96860;-29
2023/04/02 10:18:59;;;;;;;3.35;2.03;;;;;;;6.44;78.63;102492.72;5027904;28;98821;-29
2023/04/02 10:21:32;;;;;;;3.80;0.95;;;;;;;6.72;76.55;102490.38;5035441;27;97380;-29
2023/04/02 10:23:58;;;;;;;1.63;1.10;;;;;;;7.20;75.89;102499.31;5035575;28;96582;-29
2023/04/02 10:26:40;;;;;;;0.60;0.60;;;;;;;7.54;72.00;102500.38;5035767;28;96845;-28
2023/04/02 10:29:22;;;;;;;2.00;0.82;;;;;;;7.38;71.02;102497.13;5033624;27;101372;-29
2023/04/02 10:32:05;;;;;;;0.85;0.73;;;;;;;7.58;72.79;102504.78;5034632;27;97529;-29
2023/04/02 10:35:02;;;;;;;1.00;0.85;;;;;;;7.98;70.61;102507.44;5033683;28;96581;-29
2023/04/02 10:37:49;;;;;;;1.27;1.00;;;;;;;7.58;70.41;102521.88;5031848;28;96921;-29
2023/04/02 10:40:23;;;;;;;1.60;1.05;;;;;;;7.50;72.79;102518.44;5035365;28;97540;-29
2023/04/02 10:43:16;;;;;;;0.43;0.38;;;;;;;7.49;71.28;102529.28;5035337;28;97948;-29
2023/04/02 10:46:18;;;;;;;0.63;0.63;;;;;;;7.20;72.13;102539.72;5034978;28;96637;-30
2023/04/02 10:49:12;;;;;;;0.73;0.70;;;;;;;7.17;71.35;102526.28;5035388;28;96753;-29
2023/04/02 10:51:45;;;;;;;0.93;0.85;;;;;;;7.79;72.15;102531.25;5035267;27;98384;-30
2023/04/02 10:54:34;;;;;;;1.35;0.95;;;;;;;8.28;69.28;102530.09;5033867;28;101304;-28
2023/04/02 10:57:25;;;;;;;1.50;0.75;;;;;;;8.43;67.75;102539.66;5035481;28;96576;-28
2023/04/02 11:00:17;;;;;;;0.80;0.77;;;;;;;8.76;67.93;102542.41;5035146;27;96606;-29
2023/04/02 11:03:01;;;;;;;1.00;0.85;;;;;;;9.03;67.51;102542.56;5025302;28;97986;-29
2023/04/02 11:05:42;;;;;;;5.75;0.90;;;;;;;9.13;63.99;102536.00;5033336;28;100673;-29
2023/04/02 11:08:20;;;;;;;1.17;0.73;;;;;;;9.61;66.64;102538.19;5033785;27;96622;-29
2023/04/02 11:11:07;;;;;;;4.65;1.15;;;;;;;9.77;66.83;102539.50;5035082;27;96667;-29
2023/04/02 11:13:48;;;;;;;1.05;0.80;;;;;;;9.87;65.82;102539.22;5022528;27;99712;-29
2023/04/02 11:16:16;;;;;;;0.60;0.40;;;;;;;9.70;65.70;102535.22;5033235;27;100444;-29
2023/04/02 11:18:43;;;;;;;1.25;1.05;;;;;;;9.89;63.28;102543.66;5033548;28;96684;-29
2023/04/02 11:21:38;;;;;;;1.48;0.77;;;;;;;10.20;64.47;102548.06;5033627;28;96944;-30
2023/04/02 11:24:04;;;;;;;4.65;2.33;;;;;;;10.20;61.64;102543.56;5032974;28;101774;-30
2023/04/02 11:26:32;;;;;;;5.53;2.30;;;;;;;10.31;63.24;102551.34;5032893;28;101954;-29
2023/04/02 11:29:12;;;;;;;3.15;1.15;;;;;;;10.34;63.00;102548.53;5033932;27;96718;-29
2023/04/02 11:31:38;;;;;;;0.77;0.75;;;;;;;10.49;62.69;102549.84;5033249;28;96668;-29
2023/04/02 11:34:04;;;;;;;1.30;0.98;;;;;;;10.46;56.40;102549.94;5033128;28;97302;-28
2023/04/02 11:36:54;;;;;;;1.20;0.75;;;;;;;10.38;60.07;102560.16;5032806;28;99659;-29
2023/04/02 11:39:48;;;;;;;0.98;0.60;;;;;;;10.49;62.86;102565.22;5034576;28;96627;-29
2023/04/02 11:42:33;;;;;;;1.80;0.68;;;;;;;10.78;62.88;102547.97;5034669;28;96859;-29
2023/04/02 11:45:26;;;;;;;1.02;0.60;;;;;;;10.97;61.02;102549.06;5036493;28;101340;-29
2023/04/02 11:47:58;;;;;;;2.95;0.68;;;;;;;11.11;61.30;102562.13;5027010;27;98663;-29
2023/04/02 11:50:31;;;;;;;3.50;1.30;;;;;;;10.96;60.54;102547.28;5037864;28;96700;-29
2023/04/02 11:53:05;;;;;;;1.88;0.85;;;;;;;10.93;61.57;102554.66;5036627;28;96789;-29
2023/04/02 11:55:32;;;;;;;1.80;0.73;;;;;;;10.94;59.65;102551.00;5035768;28;99007;-29
2023/04/02 11:58:22;;;;;;;0.75;0.55;;;;;;;10.93;59.78;102549.25;5036324;28;100934;-29
2023/04/02 12:01:24;;;;;;;0.95;0.60;;;;;;;11.25;59.73;102559.81;5036495;27;96735;-29
2023/04/02 12:04:22;;;;;;;1.52;0.75;;;;;;;11.35;58.20;102570.31;5036554;27;96839;-29
2023/04/02 12:07:10;;;;;;;2.10;0.80;;;;;;;11.38;59.29;102576.50;5011663;27;99539;-30